createdAt,value
2023-04-14T00:00:18.858Z,100233.00
2023-04-14T00:02:49.189Z,100238.72
2023-04-14T00:05:19.851Z,100242.50
2023-04-14T00:07:50.078Z,100244.88
2023-04-14T00:10:20.184Z,100248.66
2023-04-14T00:12:50.748Z,100246.97
2023-04-14T00:15:24.083Z,100258.19
2023-04-14T00:17:53.209Z,100263.91
2023-04-14T00:20:20.902Z,100265.25
2023-04-14T00:22:49.131Z,100263.03
2023-04-14T00:25:20.294Z,100268.19
2023-04-14T00:27:48.965Z,100267.91
2023-04-14T00:30:17.414Z,100267.63
2023-04-14T00:32:48.774Z,100265.97
2023-04-14T00:35:27.736Z,100267.91
2023-04-14T00:37:58.732Z,100267.91
2023-04-14T00:40:32.734Z,100267.09
2023-04-14T00:43:05.872Z,100270.38
2023-04-14T00:45:49.831Z,100269.53
2023-04-14T00:48:20.606Z,100265.78
2023-04-14T00:50:51.112Z,100263.03
2023-04-14T00:53:21.813Z,100262.69
2023-04-14T00:55:52.013Z,100255.78
2023-04-14T00:58:24.940Z,100261.81
2023-04-14T01:00:59.093Z,100265.06
2023-04-14T01:03:29.381Z,100265.59
2023-04-14T01:06:05.518Z,100270.81
2023-04-14T01:08:34.211Z,100275.19
2023-04-14T01:11:22.489Z,100269.09
2023-04-14T01:14:45.124Z,100264.63
2023-04-14T01:17:38.139Z,100273.41
2023-04-14T01:20:44.883Z,100259.03
2023-04-14T01:23:41.071Z,100265.06
2023-04-14T01:26:45.948Z,100255.69
2023-04-14T01:29:39.402Z,100258.44
2023-04-14T01:32:18.620Z,100267.22
2023-04-14T01:34:57.804Z,100261.44
2023-04-14T01:37:48.697Z,100265.78
2023-04-14T01:40:34.186Z,100259.16
2023-04-14T01:43:11.637Z,100262.44
2023-04-14T01:45:52.713Z,100263.28
2023-04-14T01:48:27.025Z,100263.78
2023-04-14T01:51:02.546Z,100262.66
2023-04-14T01:53:39.129Z,100265.13
2023-04-14T01:56:15.348Z,100262.59
2023-04-14T01:58:49.504Z,100269.41
2023-04-14T02:01:22.955Z,100262.25
2023-04-14T02:03:53.975Z,100266.38
2023-04-14T02:06:28.679Z,100273.78
2023-04-14T02:09:04.973Z,100264.44
2023-04-14T02:11:36.805Z,100264.44
2023-04-14T02:14:11.612Z,100269.59
2023-04-14T02:16:44.836Z,100266.84
2023-04-14T02:19:21.843Z,100272.06
2023-04-14T02:21:56.935Z,100277.28
2023-04-14T02:24:27.509Z,100280.84
2023-04-14T02:27:16.426Z,100274.75
2023-04-14T02:30:00.396Z,100286.28
2023-04-14T02:32:33.744Z,100288.41
2023-04-14T02:35:16.944Z,100288.94
2023-04-14T02:37:59.243Z,100284.47
2023-04-14T02:40:42.533Z,100287.44
2023-04-14T02:43:28.710Z,100283.53
2023-04-14T02:46:06.118Z,100290.38
2023-04-14T02:48:43.107Z,100281.81
2023-04-14T02:51:18.214Z,100291.41
2023-04-14T02:53:50.624Z,100287.56
2023-04-14T02:56:22.435Z,100285.31
2023-04-14T02:58:54.181Z,100286.63
2023-04-14T03:01:27.555Z,100286.34
2023-04-14T03:03:59.545Z,100277.97
2023-04-14T03:06:32.056Z,100286.44
2023-04-14T03:09:05.244Z,100287.78
2023-04-14T03:11:38.365Z,100287.16
2023-04-14T03:14:10.176Z,100285.44
2023-04-14T03:16:42.972Z,100285.13
2023-04-14T03:19:15.707Z,100291.97
2023-04-14T03:21:47.490Z,100283.00
2023-04-14T03:24:31.132Z,100282.38
2023-04-14T03:27:11.030Z,100281.56
2023-04-14T03:29:51.387Z,100275.84
2023-04-14T03:32:29.517Z,100278.09
2023-04-14T03:35:03.181Z,100275.16
2023-04-14T03:37:41.486Z,100279.31
2023-04-14T03:40:16.538Z,100281.25
2023-04-14T03:42:49.967Z,100279.81
2023-04-14T03:45:18.388Z,100279.53
2023-04-14T03:47:46.960Z,100280.84
2023-04-14T03:50:23.272Z,100281.34
2023-04-14T03:52:55.289Z,100275.84
2023-04-14T03:55:32.090Z,100278.59
2023-04-14T03:58:05.583Z,100281.16
2023-04-14T04:00:39.701Z,100272.69
2023-04-14T04:03:12.480Z,100279.31
2023-04-14T04:05:45.096Z,100279.03
2023-04-14T04:08:17.018Z,100275.13
2023-04-14T04:10:50.028Z,100277.59
2023-04-14T04:13:24.025Z,100279.22
2023-04-14T04:15:59.594Z,100276.97
2023-04-14T04:18:35.713Z,100275.22
2023-04-14T04:21:12.349Z,100278.50
2023-04-14T04:23:51.526Z,100275.72
2023-04-14T04:26:25.400Z,100276.06
2023-04-14T04:29:06.618Z,100273.31
2023-04-14T04:31:39.957Z,100276.06
2023-04-14T04:34:12.246Z,100274.72
2023-04-14T04:36:44.693Z,100278.09
2023-04-14T04:39:14.957Z,100276.97
2023-04-14T04:41:46.049Z,100272.59
2023-04-14T04:44:18.938Z,100278.09
2023-04-14T04:46:58.835Z,100278.91
2023-04-14T04:49:29.633Z,100271.44
2023-04-14T04:51:57.540Z,100272.28
2023-04-14T04:54:27.291Z,100272.28
2023-04-14T04:57:01.620Z,100276.66
2023-04-14T04:59:33.181Z,100277.97
2023-04-14T05:02:03.318Z,100277.69
2023-04-14T05:04:33.574Z,100279.84
2023-04-14T05:07:04.212Z,100282.28
2023-04-14T05:09:33.802Z,100282.00
2023-04-14T05:12:04.171Z,100281.38
2023-04-14T05:14:34.445Z,100279.13
2023-04-14T05:17:07.010Z,100288.75
2023-04-14T05:19:37.204Z,100284.53
2023-04-14T05:22:06.682Z,100287.81
2023-04-14T05:24:36.396Z,100292.69
2023-04-14T05:27:14.240Z,100290.75
2023-04-14T05:29:44.791Z,100293.72
2023-04-14T05:32:14.854Z,100285.66
2023-04-14T05:34:45.348Z,100285.81
2023-04-14T05:37:14.994Z,100286.84
2023-04-14T05:39:45.181Z,100281.22
2023-04-14T05:42:18.842Z,100278.16
2023-04-14T05:44:49.136Z,100279.47
2023-04-14T05:47:19.153Z,100286.31
2023-04-14T05:49:48.392Z,100291.69
2023-04-14T05:52:18.267Z,100291.09
2023-04-14T05:54:48.029Z,100295.38
2023-04-14T05:57:17.759Z,100290.84
2023-04-14T05:59:47.640Z,100290.72
2023-04-14T06:02:17.595Z,100294.50
2023-04-14T06:04:47.891Z,100297.13
2023-04-14T06:07:18.240Z,100301.38
2023-04-14T06:09:47.987Z,100284.72
2023-04-14T06:12:17.808Z,100294.50
2023-04-14T06:14:47.949Z,100297.94
2023-04-14T06:17:17.778Z,100292.81
2023-04-14T06:19:49.255Z,100302.25
2023-04-14T06:22:20.035Z,100298.59
2023-04-14T06:24:50.136Z,100301.50
2023-04-14T06:27:19.876Z,100299.09
2023-04-14T06:29:48.245Z,100300.38
2023-04-14T06:32:16.748Z,100295.38
2023-04-14T06:34:45.869Z,100298.28
2023-04-14T06:37:13.812Z,100306.47
2023-04-14T06:39:42.113Z,100302.56
2023-04-14T06:42:14.983Z,100305.19
2023-04-14T06:44:45.099Z,100307.31
2023-04-14T06:47:21.112Z,100305.84
2023-04-14T06:49:50.421Z,100303.28
2023-04-14T06:52:20.583Z,100299.41
2023-04-14T06:54:50.639Z,100305.44
2023-04-14T06:57:21.037Z,100313.25
2023-04-14T06:59:50.938Z,100316.69
2023-04-14T07:02:20.537Z,100307.09
2023-04-14T07:04:50.296Z,100299.78
2023-04-14T07:07:20.125Z,100302.28
2023-04-14T07:09:50.064Z,100296.28
2023-04-14T07:12:19.958Z,100296.66
2023-04-14T07:14:52.724Z,100300.06
2023-04-14T07:17:22.809Z,100294.41
2023-04-14T07:19:52.998Z,100294.25
2023-04-14T07:22:22.759Z,100299.81
2023-04-14T07:24:53.899Z,100295.75
2023-04-14T07:27:24.562Z,100301.16
2023-04-14T07:29:54.334Z,100297.56
2023-04-14T07:32:24.602Z,100314.03
2023-04-14T07:34:55.268Z,100309.19
2023-04-14T07:37:25.109Z,100306.41
2023-04-14T07:39:53.255Z,100313.06
2023-04-14T07:42:21.466Z,100323.34
2023-04-14T07:44:49.962Z,100313.91
2023-04-14T07:47:18.234Z,100315.22
2023-04-14T07:49:47.097Z,100320.75
2023-04-14T07:52:15.128Z,100333.59
2023-04-14T07:54:43.427Z,100328.56
2023-04-14T07:57:11.962Z,100322.66
2023-04-14T07:59:43.098Z,100332.94
2023-04-14T08:02:11.956Z,100327.72
2023-04-14T08:04:40.298Z,100329.50
2023-04-14T08:07:08.823Z,100327.69
2023-04-14T08:09:37.123Z,100321.66
2023-04-14T08:12:08.640Z,100324.63
2023-04-14T08:14:38.909Z,100328.69
2023-04-14T08:17:09.101Z,100328.63
2023-04-14T08:19:38.869Z,100319.94
2023-04-14T08:22:07.910Z,100325.59
2023-04-14T08:24:37.657Z,100327.34
2023-04-14T08:27:07.122Z,100334.38
2023-04-14T08:29:35.690Z,100322.69
2023-04-14T08:32:04.979Z,100317.97
2023-04-14T08:34:32.282Z,100310.50
2023-04-14T08:37:00.832Z,100312.75
2023-04-14T08:39:29.317Z,100311.44
2023-04-14T08:41:58.556Z,100305.09
2023-04-14T08:44:31.086Z,100306.09
2023-04-14T08:47:02.416Z,100306.28
2023-04-14T08:49:57.155Z,100296.31
2023-04-14T08:52:32.290Z,100294.84
2023-04-14T08:55:06.051Z,100289.69
2023-04-14T08:57:37.694Z,100290.16
2023-04-14T09:00:10.818Z,100287.97
2023-04-14T09:02:42.599Z,100292.06
2023-04-14T09:05:14.516Z,100297.09
2023-04-14T09:07:45.343Z,100300.63
2023-04-14T09:10:17.173Z,100294.47
2023-04-14T09:12:49.022Z,100292.41
2023-04-14T09:15:20.816Z,100286.69
2023-04-14T09:17:51.394Z,100288.97
2023-04-14T09:20:38.501Z,100288.63
2023-04-14T09:23:11.044Z,100293.94
2023-04-14T09:25:42.627Z,100292.81
2023-04-14T09:28:13.236Z,100293.66
2023-04-14T09:30:43.935Z,100291.56
2023-04-14T09:33:24.311Z,100293.56
2023-04-14T09:35:55.489Z,100287.50
2023-04-14T09:38:40.635Z,100275.56
2023-04-14T09:41:26.230Z,100285.22
2023-04-14T09:43:55.819Z,100289.63
2023-04-14T09:46:26.137Z,100286.22
2023-04-14T09:48:57.878Z,100282.16
2023-04-14T09:51:33.500Z,100279.09
2023-04-14T09:54:06.870Z,100273.78
2023-04-14T09:56:37.430Z,100281.22
2023-04-14T09:59:07.264Z,100274.72
2023-04-14T10:01:37.543Z,100284.66
2023-04-14T10:04:26.758Z,100273.47
2023-04-14T10:07:00.732Z,100288.25
2023-04-14T10:09:40.993Z,100283.53
2023-04-14T10:12:19.479Z,100282.03
2023-04-14T10:14:47.153Z,100282.09
2023-04-14T10:17:15.562Z,100281.56
2023-04-14T10:19:44.030Z,100285.16
2023-04-14T10:22:13.104Z,100282.22
2023-04-14T10:24:41.874Z,100274.88
2023-04-14T10:27:09.282Z,100270.44
2023-04-14T10:29:42.337Z,100269.50
2023-04-14T10:32:17.722Z,100263.03
2023-04-14T10:35:12.403Z,100270.00
2023-04-14T10:37:54.312Z,100261.03
2023-04-14T10:40:24.818Z,100261.84
2023-04-14T10:42:56.605Z,100265.50
2023-04-14T10:45:24.515Z,100257.81
2023-04-14T10:47:53.268Z,100253.38
2023-04-14T10:50:25.275Z,100259.84
2023-04-14T10:52:56.962Z,100250.56
2023-04-14T10:55:51.668Z,100251.75
2023-04-14T10:58:29.881Z,100247.81
2023-04-14T11:01:00.090Z,100246.22
2023-04-14T11:03:48.318Z,100242.00
2023-04-14T11:06:57.300Z,100238.97
2023-04-14T11:09:39.626Z,100238.28
2023-04-14T11:12:31.604Z,100245.91
2023-04-14T11:15:06.388Z,100251.91
2023-04-14T11:17:41.896Z,100240.50
2023-04-14T11:20:21.209Z,100247.66
2023-04-14T11:22:54.253Z,100248.72
2023-04-14T11:25:24.595Z,100235.69
2023-04-14T11:27:55.245Z,100240.91
2023-04-14T11:30:22.887Z,100252.56
2023-04-14T11:32:57.968Z,100249.78
2023-04-14T11:35:31.452Z,100245.59
2023-04-14T11:38:01.988Z,100248.69
2023-04-14T11:40:30.750Z,100249.50
2023-04-14T11:43:01.960Z,100240.41
2023-04-14T11:45:31.987Z,100239.09
2023-04-14T11:48:08.625Z,100238.44
2023-04-14T11:50:40.064Z,100237.47
2023-04-14T11:53:16.538Z,100243.00
2023-04-14T11:55:52.199Z,100251.19
2023-04-14T11:58:24.997Z,100244.38
2023-04-14T12:00:57.824Z,100239.31
2023-04-14T12:03:39.560Z,100235.72
2023-04-14T12:06:10.428Z,100238.97
2023-04-14T12:08:40.615Z,100227.44
2023-04-14T12:11:15.801Z,100229.09
2023-04-14T12:13:49.366Z,100230.03
2023-04-14T12:16:20.094Z,100234.25
2023-04-14T12:18:50.264Z,100224.09
2023-04-14T12:21:22.968Z,100226.78
2023-04-14T12:23:54.951Z,100226.44
2023-04-14T12:26:26.347Z,100217.81
2023-04-14T12:28:58.381Z,100218.91
2023-04-14T12:31:30.200Z,100216.31
2023-04-14T12:34:04.226Z,100220.34
2023-04-14T12:36:47.823Z,100223.34
2023-04-14T12:39:17.803Z,100210.19
2023-04-14T12:41:47.035Z,100209.25
2023-04-14T12:44:20.943Z,100205.03
2023-04-14T12:46:54.041Z,100209.16
2023-04-14T12:49:38.979Z,100206.53
2023-04-14T12:52:09.190Z,100199.50
2023-04-14T12:54:54.125Z,100200.16
2023-04-14T12:57:24.316Z,100201.16
2023-04-14T12:59:54.436Z,100195.09
2023-04-14T13:02:24.881Z,100198.19
2023-04-14T13:04:55.576Z,100193.53
2023-04-14T13:07:25.773Z,100182.91
2023-04-14T13:09:58.236Z,100184.66
2023-04-14T13:12:28.452Z,100192.31
2023-04-14T13:14:58.970Z,100186.28
2023-04-14T13:17:29.578Z,100181.16
2023-04-14T13:19:59.880Z,100176.31
2023-04-14T13:22:30.059Z,100178.13
2023-04-14T13:25:00.784Z,100175.69
2023-04-14T13:27:31.163Z,100176.69
2023-04-14T13:30:02.333Z,100168.25
2023-04-14T13:32:29.928Z,100163.66
2023-04-14T13:35:01.022Z,100160.19
2023-04-14T13:37:29.519Z,100160.03
2023-04-14T13:39:58.468Z,100162.13
2023-04-14T13:42:26.733Z,100155.78
2023-04-14T13:44:54.762Z,100163.75
2023-04-14T13:47:23.792Z,100149.63
2023-04-14T13:49:51.672Z,100153.31
2023-04-14T13:52:22.990Z,100148.47
2023-04-14T13:54:53.193Z,100148.94
2023-04-14T13:57:23.328Z,100149.44
2023-04-14T13:59:53.534Z,100146.34
2023-04-14T14:02:24.183Z,100156.09
2023-04-14T14:04:55.069Z,100137.25
2023-04-14T14:07:25.411Z,100148.63
2023-04-14T14:09:55.715Z,100145.41
2023-04-14T14:12:25.884Z,100144.41
2023-04-14T14:14:56.077Z,100142.00
2023-04-14T14:17:26.256Z,100145.28
2023-04-14T14:19:56.467Z,100143.78
2023-04-14T14:22:27.014Z,100141.84
2023-04-14T14:25:10.816Z,100149.50
2023-04-14T14:27:47.790Z,100142.19
2023-04-14T14:30:16.105Z,100139.41
2023-04-14T14:32:44.463Z,100145.41
2023-04-14T14:35:12.845Z,100132.72
2023-04-14T14:37:42.926Z,100129.31
2023-04-14T14:40:13.274Z,100127.41
2023-04-14T14:42:41.285Z,100133.22
2023-04-14T14:45:10.595Z,100125.13
2023-04-14T14:47:39.112Z,100120.22
2023-04-14T14:50:10.339Z,100123.78
2023-04-14T14:52:40.577Z,100117.75
2023-04-14T14:55:10.870Z,100125.75
2023-04-14T14:57:39.082Z,100122.16
2023-04-14T15:00:08.982Z,100126.41
2023-04-14T15:02:39.224Z,100122.34
2023-04-14T15:05:08.280Z,100121.47
2023-04-14T15:07:35.762Z,100122.09
2023-04-14T15:10:05.695Z,100122.41
2023-04-14T15:12:35.978Z,100130.88
2023-04-14T15:15:07.847Z,100132.69
2023-04-14T15:17:37.993Z,100120.81
2023-04-14T15:20:09.114Z,100126.97
2023-04-14T15:22:39.332Z,100128.91
2023-04-14T15:25:10.138Z,100130.81
2023-04-14T15:27:40.460Z,100128.38
2023-04-14T15:30:11.460Z,100125.44
2023-04-14T15:32:41.864Z,100133.91
2023-04-14T15:35:12.012Z,100129.03
2023-04-14T15:37:42.375Z,100137.81
2023-04-14T15:40:12.885Z,100128.00
2023-04-14T15:42:43.003Z,100134.03
2023-04-14T15:45:14.507Z,100132.03
2023-04-14T15:47:46.410Z,100124.63
2023-04-14T15:50:18.918Z,100127.19
2023-04-14T15:52:49.867Z,100130.75
2023-04-14T15:55:20.417Z,100141.00
2023-04-14T15:57:50.979Z,100144.53
2023-04-14T16:00:22.786Z,100140.19
2023-04-14T16:02:53.142Z,100142.16
2023-04-14T16:05:23.359Z,100138.63
2023-04-14T16:07:53.258Z,100135.84
2023-04-14T16:10:23.511Z,100143.13
2023-04-14T16:12:53.763Z,100152.50
2023-04-14T16:15:23.611Z,100148.59
2023-04-14T16:17:53.440Z,100149.44
2023-04-14T16:20:23.861Z,100145.06
2023-04-14T16:22:54.321Z,100137.28
2023-04-14T16:25:24.421Z,100137.75
2023-04-14T16:27:54.624Z,100134.16
2023-04-14T16:30:24.232Z,100143.75
2023-04-14T16:32:54.074Z,100142.31
2023-04-14T16:35:24.175Z,100145.66
2023-04-14T16:37:54.306Z,100148.44
2023-04-14T16:40:22.764Z,100149.22
2023-04-14T16:42:51.299Z,100141.66
2023-04-14T16:45:20.366Z,100148.28
2023-04-14T16:47:48.026Z,100143.25
2023-04-14T16:50:16.582Z,100141.75
2023-04-14T16:52:44.790Z,100145.66
2023-04-14T16:55:15.835Z,100141.91
2023-04-14T16:57:44.681Z,100140.31
2023-04-14T17:00:14.281Z,100148.09
2023-04-14T17:02:41.691Z,100140.31
2023-04-14T17:05:11.302Z,100149.09
2023-04-14T17:07:42.675Z,100149.44
2023-04-14T17:10:12.716Z,100141.66
2023-04-14T17:12:43.227Z,100143.25
2023-04-14T17:15:13.376Z,100143.75
2023-04-14T17:17:43.450Z,100149.44
2023-04-14T17:20:15.561Z,100145.22
2023-04-14T17:22:45.186Z,100142.91
2023-04-14T17:25:21.995Z,100144.34
2023-04-14T17:27:50.066Z,100142.41
2023-04-14T17:30:20.711Z,100144.34
2023-04-14T17:32:50.778Z,100143.03
2023-04-14T17:35:21.545Z,100145.78
2023-04-14T17:37:51.688Z,100145.94
2023-04-14T17:40:21.649Z,100149.38
2023-04-14T17:42:52.179Z,100155.00
2023-04-14T17:45:25.870Z,100144.78
2023-04-14T17:47:54.186Z,100139.91
2023-04-14T17:50:25.672Z,100141.72
2023-04-14T17:52:55.744Z,100141.38
2023-04-14T17:55:25.145Z,100137.78
2023-04-14T17:57:56.297Z,100131.44
2023-04-14T18:00:29.405Z,100144.56
2023-04-14T18:02:56.969Z,100145.69
2023-04-14T18:05:25.505Z,100133.66
2023-04-14T18:07:54.580Z,100123.25
2023-04-14T18:10:22.483Z,100131.03
2023-04-14T18:12:50.983Z,100135.41
2023-04-14T18:15:19.974Z,100138.56
2023-04-14T18:17:48.064Z,100128.63
2023-04-14T18:20:18.827Z,100133.94
2023-04-14T18:22:48.369Z,100134.28
2023-04-14T18:25:16.986Z,100136.72
2023-04-14T18:30:19.534Z,100141.31
2023-04-14T18:32:49.776Z,100143.22
2023-04-14T18:35:20.099Z,100141.47
2023-04-14T18:37:50.491Z,100143.22
2023-04-14T18:40:21.196Z,100143.22
2023-04-14T18:42:54.327Z,100139.97
2023-04-14T18:45:24.497Z,100135.09
2023-04-14T18:47:54.759Z,100142.72
2023-04-14T18:50:25.512Z,100139.16
2023-04-14T18:52:56.050Z,100136.09
2023-04-14T18:55:26.211Z,100131.19
2023-04-14T18:58:13.176Z,100132.53
2023-04-14T19:00:46.589Z,100136.28
2023-04-14T19:03:17.270Z,100128.63
2023-04-14T19:05:52.209Z,100129.00
2023-04-14T19:08:22.574Z,100125.56
2023-04-14T19:10:52.824Z,100125.06
2023-04-14T19:13:24.220Z,100126.19
2023-04-14T19:16:13.536Z,100120.03
2023-04-14T19:18:43.447Z,100120.09
2023-04-14T19:21:12.462Z,100116.16
2023-04-14T19:23:41.133Z,100116.78
2023-04-14T19:26:10.489Z,100114.22
2023-04-14T19:28:40.443Z,100113.22
2023-04-14T19:31:09.802Z,100100.22
2023-04-14T19:33:41.907Z,100116.16
2023-04-14T19:36:18.621Z,100116.16
2023-04-14T19:38:49.230Z,100126.50
2023-04-14T19:41:19.684Z,100126.19
2023-04-14T19:43:51.075Z,100118.41
2023-04-14T19:46:21.870Z,100104.59
2023-04-14T19:48:52.398Z,100097.34
2023-04-14T19:51:22.564Z,100093.56
2023-04-14T19:53:52.820Z,100104.31
2023-04-14T19:56:20.530Z,100091.81
2023-04-14T19:58:48.238Z,100090.19
2023-04-14T20:01:18.476Z,100101.03
2023-04-14T20:04:05.102Z,100082.72
2023-04-14T20:06:37.204Z,100072.50
2023-04-14T20:09:05.761Z,100060.66
2023-04-14T20:11:34.020Z,100062.50
2023-04-14T20:14:02.605Z,100067.72
2023-04-14T20:16:31.306Z,100074.69
2023-04-14T20:18:59.561Z,100062.19
2023-04-14T20:21:28.325Z,100069.72
2023-04-14T20:23:57.845Z,100073.28
2023-04-14T20:26:28.753Z,100071.81
2023-04-14T20:28:59.511Z,100070.03
2023-04-14T20:31:30.956Z,100066.53
2023-04-14T20:34:01.217Z,100067.00
2023-04-14T20:36:35.683Z,100066.97
2023-04-14T20:39:06.386Z,100074.28
2023-04-14T20:41:36.677Z,100072.00
2023-04-14T20:44:07.580Z,100067.47
2023-04-14T20:46:37.931Z,100061.44
2023-04-14T20:49:08.129Z,100047.16
2023-04-14T20:51:39.647Z,100054.16
2023-04-14T20:54:09.748Z,100050.41
2023-04-14T20:56:40.250Z,100043.16
2023-04-14T20:59:10.453Z,100046.72
2023-04-14T21:01:42.772Z,100038.91
2023-04-14T21:04:13.126Z,100037.63
2023-04-14T21:06:43.812Z,100033.72
2023-04-14T21:09:14.704Z,100049.94
2023-04-14T21:11:44.827Z,100041.81
2023-04-14T21:15:48.019Z,100040.50
2023-04-14T21:17:05.183Z,100034.50
2023-04-14T21:19:35.355Z,100016.66
2023-04-14T21:22:08.246Z,100020.53
2023-04-14T21:24:38.375Z,100017.94
2023-04-14T21:27:08.501Z,100016.13
2023-04-14T21:29:38.638Z,100014.53
2023-04-14T21:32:08.733Z,100018.28
2023-04-14T21:34:37.437Z,100020.03
2023-04-14T21:37:05.763Z,100028.00
2023-04-14T21:39:34.083Z,100018.09
2023-04-14T21:42:03.898Z,100019.25
2023-04-14T21:44:33.874Z,100011.63
2023-04-14T21:47:02.272Z,100011.16
2023-04-14T21:49:30.731Z,100015.34
2023-04-14T21:51:59.173Z,100011.31
2023-04-14T21:54:27.806Z,100014.84
2023-04-14T21:56:57.055Z,100003.34
2023-04-14T21:59:24.458Z,100001.72
2023-04-14T22:01:53.032Z,99995.53
2023-04-14T22:04:33.069Z,99996.00
2023-04-14T22:07:06.621Z,99992.63
2023-04-14T22:09:36.800Z,99993.94
2023-04-14T22:12:11.591Z,99994.09
2023-04-14T22:14:42.162Z,99993.63
2023-04-14T22:17:12.348Z,99990.97
2023-04-14T22:19:43.343Z,99980.44
2023-04-14T22:22:13.535Z,99975.41
2023-04-14T22:24:43.823Z,99982.56
2023-04-14T22:27:13.959Z,99979.47
2023-04-14T22:29:44.128Z,99978.34
2023-04-14T22:32:14.310Z,99980.31
2023-04-14T22:34:44.497Z,99991.34
2023-04-14T22:37:14.817Z,99986.94
2023-04-14T22:39:45.146Z,99989.19
2023-04-14T22:42:19.554Z,99988.22
2023-04-14T22:44:48.241Z,99989.38
2023-04-14T22:47:18.153Z,99989.38
2023-04-14T22:49:46.827Z,99979.31
2023-04-14T22:52:15.069Z,99975.56
2023-04-14T22:54:43.394Z,99983.19
2023-04-14T22:57:11.861Z,99984.47
2023-04-14T22:59:40.323Z,99987.59
2023-04-14T23:02:08.701Z,99998.63
2023-04-14T23:04:37.722Z,99992.25
2023-04-14T23:07:05.822Z,99986.75
2023-04-14T23:09:34.070Z,99982.69
2023-04-14T23:12:03.039Z,99981.88
2023-04-14T23:14:32.519Z,99974.59
2023-04-14T23:17:02.789Z,99983.19
2023-04-14T23:19:33.807Z,99981.09
2023-04-14T23:22:04.579Z,99982.41
2023-04-14T23:24:34.719Z,99983.84
2023-04-14T23:27:04.989Z,99983.03
2023-04-14T23:29:40.078Z,99974.09
2023-04-14T23:32:10.528Z,99984.63
2023-04-14T23:34:41.228Z,99977.97
2023-04-14T23:37:12.728Z,99973.78
2023-04-14T23:39:42.949Z,99980.41
2023-04-14T23:42:20.193Z,99974.91
2023-04-14T23:44:50.324Z,99969.06
2023-04-14T23:47:20.645Z,99974.78
2023-04-14T23:49:51.392Z,99964.66
2023-04-14T23:52:21.983Z,99969.69
2023-04-14T23:54:52.307Z,99965.81
2023-04-14T23:57:22.639Z,99970.53
2023-04-14T23:59:53.044Z,99956.72
